Oregon State Flying Club

The Oregon State Flying Club is a non-profit organization committed to providing safe and inexpensive flying to the Oregon State University and Linn-Benton Community College communities. The Club currently owns three aircraft based at the Corvallis Airport for training, travel, and recreational purposes. Founded in 1952 and incorporated in 1956 the OSFC is one of the oldest continuously active flying clubs in the United States.

News & Announcements

Flying Club Open House

Saturday, April 30th, 9am-1pm, Corvallis Airport

Monthly Board Meeting

Next Meeting: Thursday, May 12, 6pm, @ CVO

Current METAR KCVO

Raw METAR:  KCVO 300855Z 32003KT 10SM 08/05 A3030 RMK AO1 52010

This is a report for Corvallis Municipal Automatic Weather Observing / Reporting System, United States. The report was made 10 minutes ago, at 08:55 UTC. The wind was blowing at a speed of 3.5 miles per hour (1.5 meters per second) from northwest (320°). The temperature was 46 °F (8 °C), with a dew-point at 41 °F (5 °C). The atmospheric pressure was 30.30 inHg (1026 hPa). The relative humidity was 81.3%. The overall visibility was 10.0 miles (16.1 kilometers).